createdAt,value
2019-03-24T00:00:09.144Z,52.83
2019-03-24T00:01:44.454Z,54.33
2019-03-24T00:03:19.454Z,54.97
2019-03-24T00:04:54.709Z,55.77
2019-03-24T00:06:29.968Z,51.73
2019-03-24T00:08:05.036Z,53.40
2019-03-24T00:09:40.224Z,52.83
2019-03-24T00:11:15.386Z,53.40
2019-03-24T00:12:50.605Z,52.83
2019-03-24T00:14:25.513Z,60.10
2019-03-24T00:16:00.827Z,55.83
2019-03-24T00:17:35.749Z,56.27
2019-03-24T00:19:10.694Z,56.00
2019-03-24T00:20:47.035Z,55.00
2019-03-24T00:22:22.035Z,55.07
2019-03-24T00:23:57.418Z,55.40
2019-03-24T00:25:32.962Z,52.70
2019-03-24T00:27:08.166Z,57.23
2019-03-24T00:28:43.230Z,56.60
2019-03-24T00:30:19.000Z,56.90
2019-03-24T00:31:54.016Z,59.47
2019-03-24T00:33:29.019Z,56.90
2019-03-24T00:35:04.438Z,56.03
2019-03-24T00:36:39.676Z,55.13
2019-03-24T00:38:14.650Z,56.67
2019-03-24T00:39:49.594Z,52.77
2019-03-24T00:41:24.858Z,55.07
2019-03-24T00:42:59.774Z,55.17
2019-03-24T00:44:34.756Z,54.77
2019-03-24T00:46:09.689Z,54.13
2019-03-24T00:47:44.915Z,59.37
2019-03-24T00:49:19.829Z,56.97
2019-03-24T00:50:54.807Z,53.60
2019-03-24T00:52:30.023Z,51.93
2019-03-24T00:54:05.457Z,58.43
2019-03-24T00:55:40.409Z,58.53
2019-03-24T00:57:15.350Z,56.47
2019-03-24T00:58:50.253Z,60.50
2019-03-24T01:00:42.951Z,57.73
2019-03-24T01:02:17.965Z,57.33
2019-03-24T01:03:52.911Z,54.33
2019-03-24T01:05:28.142Z,53.80
2019-03-24T01:07:03.226Z,53.10
2019-03-24T01:08:38.218Z,53.53
2019-03-24T01:10:13.776Z,56.13
2019-03-24T01:11:48.752Z,53.43
2019-03-24T01:13:23.982Z,54.90
2019-03-24T01:14:58.893Z,57.03
2019-03-24T01:16:33.851Z,54.87
2019-03-24T01:18:08.845Z,52.33
2019-03-24T01:19:43.881Z,54.93
2019-03-24T01:21:18.816Z,52.20
2019-03-24T01:22:54.061Z,58.77
2019-03-24T01:24:29.287Z,56.40
2019-03-24T01:26:04.185Z,55.47
2019-03-24T01:27:39.117Z,54.80
2019-03-24T01:29:14.018Z,54.70
2019-03-24T01:30:48.989Z,56.63
2019-03-24T01:32:23.934Z,54.57
2019-03-24T01:33:58.855Z,53.37
2019-03-24T01:35:33.764Z,59.43
2019-03-24T01:37:08.706Z,52.53
2019-03-24T01:38:43.610Z,58.60
2019-03-24T01:40:18.600Z,58.40
2019-03-24T01:41:53.531Z,56.50
2019-03-24T01:43:28.771Z,53.83
2019-03-24T01:45:03.851Z,55.53
2019-03-24T01:46:38.834Z,55.33
2019-03-24T01:48:13.778Z,55.27
2019-03-24T01:49:48.716Z,58.77
2019-03-24T01:51:24.217Z,57.37
2019-03-24T01:52:59.554Z,55.93
2019-03-24T01:54:34.481Z,57.10
2019-03-24T01:56:09.394Z,55.80
2019-03-24T01:57:44.545Z,55.33
2019-03-24T01:59:19.799Z,56.53
2019-03-24T02:00:55.029Z,60.90
2019-03-24T02:02:30.255Z,59.07
2019-03-24T02:04:05.333Z,58.93
2019-03-24T02:05:40.258Z,57.03
2019-03-24T02:07:15.183Z,55.53
2019-03-24T02:08:50.752Z,60.97
2019-03-24T02:10:26.090Z,57.80
2019-03-24T02:12:01.370Z,53.27
2019-03-24T02:13:36.561Z,60.00
2019-03-24T02:15:12.194Z,54.00
2019-03-24T02:16:47.162Z,59.00
2019-03-24T02:18:22.085Z,59.77
2019-03-24T02:19:57.013Z,55.83
2019-03-24T02:21:32.970Z,59.87
2019-03-24T02:23:07.870Z,62.07
2019-03-24T02:24:42.780Z,58.27
2019-03-24T02:26:17.707Z,57.50
2019-03-24T02:27:52.615Z,58.10
2019-03-24T02:29:27.562Z,56.73
2019-03-24T02:31:02.781Z,56.87
2019-03-24T02:32:37.698Z,58.50
2019-03-24T02:34:12.679Z,57.63
2019-03-24T02:35:47.693Z,61.90
2019-03-24T02:37:22.605Z,60.10
2019-03-24T02:38:57.518Z,58.13
2019-03-24T02:40:32.499Z,57.60
2019-03-24T02:42:07.423Z,60.60
2019-03-24T02:43:42.328Z,61.10
2019-03-24T02:45:17.257Z,58.70
2019-03-24T02:46:52.449Z,63.90
2019-03-24T02:48:27.355Z,61.13
2019-03-24T02:50:02.296Z,63.70
2019-03-24T02:51:37.603Z,59.53
2019-03-24T02:53:13.096Z,60.13
2019-03-24T02:54:47.994Z,60.23
2019-03-24T02:56:23.502Z,60.40
2019-03-24T02:57:58.871Z,61.57
2019-03-24T02:59:33.777Z,62.53
2019-03-24T03:01:08.721Z,61.43
2019-03-24T03:02:43.802Z,58.07
2019-03-24T03:04:18.708Z,61.53
2019-03-24T03:05:53.625Z,60.97
2019-03-24T03:07:28.940Z,59.50
2019-03-24T03:09:05.027Z,62.53
2019-03-24T03:10:40.226Z,56.37
2019-03-24T03:12:15.139Z,60.43
2019-03-24T03:13:50.062Z,60.30
2019-03-24T03:15:25.039Z,60.80
2019-03-24T03:16:59.991Z,58.97
2019-03-24T03:18:34.906Z,60.47
2019-03-24T03:20:10.830Z,63.03
2019-03-24T03:21:46.030Z,59.33
2019-03-24T03:23:21.207Z,61.17
2019-03-24T03:24:56.123Z,63.33
2019-03-24T03:26:31.611Z,58.77
2019-03-24T03:28:06.858Z,59.90
2019-03-24T03:29:41.922Z,60.93
2019-03-24T03:31:16.905Z,63.37
2019-03-24T03:32:52.759Z,57.90
2019-03-24T03:34:27.708Z,59.77
2019-03-24T03:36:02.876Z,61.57
2019-03-24T03:37:37.939Z,58.30
2019-03-24T03:39:12.902Z,63.17
2019-03-24T03:40:54.772Z,63.17
2019-03-24T03:42:30.081Z,61.33
2019-03-24T03:44:05.162Z,60.40
2019-03-24T03:45:40.249Z,54.60
2019-03-24T03:47:15.151Z,58.20
2019-03-24T03:48:50.453Z,60.73
2019-03-24T03:50:25.365Z,61.77
2019-03-24T03:52:00.676Z,61.33
2019-03-24T03:53:35.619Z,60.10
2019-03-24T03:55:10.840Z,61.37
2019-03-24T03:56:45.823Z,61.50
2019-03-24T03:58:20.753Z,58.97
2019-03-24T03:59:55.666Z,56.50
2019-03-24T04:01:30.599Z,61.40
2019-03-24T04:03:06.452Z,61.43
2019-03-24T04:04:41.370Z,65.10
2019-03-24T04:06:16.355Z,58.77
2019-03-24T04:07:51.289Z,56.10
2019-03-24T04:09:26.309Z,59.30
2019-03-24T04:11:01.569Z,61.83
2019-03-24T04:12:36.808Z,58.77
2019-03-24T04:14:11.746Z,60.43
2019-03-24T04:15:46.672Z,56.03
2019-03-24T04:17:21.944Z,59.33
2019-03-24T04:18:56.885Z,60.23
2019-03-24T04:20:31.853Z,57.33
2019-03-24T04:22:06.914Z,60.97
2019-03-24T04:23:41.823Z,57.73
2019-03-24T04:25:16.903Z,55.23
2019-03-24T04:26:51.825Z,60.30
2019-03-24T04:28:26.787Z,57.60
2019-03-24T04:30:01.811Z,58.07
2019-03-24T04:31:37.195Z,59.07
2019-03-24T04:33:12.387Z,54.63
2019-03-24T04:34:47.384Z,59.17
2019-03-24T04:36:22.654Z,58.30
2019-03-24T04:37:57.642Z,56.77
2019-03-24T04:39:32.614Z,56.40
2019-03-24T04:41:07.604Z,53.13
2019-03-24T04:42:42.771Z,58.13
2019-03-24T04:44:17.695Z,59.07
2019-03-24T04:45:52.834Z,60.53
2019-03-24T04:47:27.746Z,56.47
2019-03-24T04:49:02.681Z,59.57
2019-03-24T04:50:37.622Z,60.60
2019-03-24T04:52:12.812Z,53.27
2019-03-24T04:53:47.710Z,56.50
2019-03-24T04:55:22.644Z,59.33
2019-03-24T04:56:57.573Z,58.97
2019-03-24T04:58:32.480Z,62.40
2019-03-24T05:00:08.086Z,61.13
2019-03-24T05:01:42.993Z,57.40
2019-03-24T05:03:17.912Z,58.40
2019-03-24T05:04:52.911Z,55.00
2019-03-24T05:06:27.879Z,57.57
2019-03-24T05:08:04.349Z,60.07
2019-03-24T05:09:40.208Z,61.77
2019-03-24T05:11:15.801Z,56.30
2019-03-24T05:12:51.653Z,51.23
2019-03-24T05:14:27.501Z,56.70
2019-03-24T05:16:03.125Z,56.53
2019-03-24T05:17:39.223Z,54.13
2019-03-24T05:19:14.815Z,52.60
2019-03-24T05:20:50.422Z,50.30
2019-03-24T05:22:26.041Z,54.37
2019-03-24T05:24:01.628Z,52.23
2019-03-24T05:25:37.483Z,53.50
2019-03-24T05:27:13.589Z,54.17
2019-03-24T05:28:49.201Z,56.33
2019-03-24T05:30:24.860Z,51.97
2019-03-24T05:32:00.455Z,51.93
2019-03-24T05:33:36.070Z,53.33
2019-03-24T05:35:11.919Z,54.97
2019-03-24T05:36:47.767Z,51.25
2019-03-24T05:38:23.383Z,52.27
2019-03-24T05:39:59.436Z,51.70
2019-03-24T05:41:35.037Z,51.93
2019-03-24T05:43:10.660Z,51.23
2019-03-24T05:44:46.248Z,50.13
2019-03-24T05:46:21.837Z,53.30
2019-03-24T05:47:57.688Z,53.07
2019-03-24T05:49:33.541Z,49.80
2019-03-24T05:51:09.348Z,51.00
2019-03-24T05:52:45.228Z,55.43
2019-03-24T05:54:20.876Z,48.27
2019-03-24T05:55:56.469Z,47.00
2019-03-24T05:57:32.053Z,47.97
2019-03-24T05:59:07.670Z,51.63
2019-03-24T06:00:43.581Z,48.93
2019-03-24T06:02:19.401Z,51.83
2019-03-24T06:03:54.996Z,51.20
2019-03-24T06:05:30.614Z,55.83
2019-03-24T06:07:06.273Z,54.53
2019-03-24T06:08:41.869Z,52.30
2019-03-24T06:10:17.857Z,49.30
2019-03-24T06:11:53.466Z,49.80
2019-03-24T06:13:29.538Z,47.47
2019-03-24T06:15:04.770Z,47.87
2019-03-24T06:16:39.758Z,45.47
2019-03-24T06:18:14.922Z,44.33
2019-03-24T06:19:49.849Z,39.50
2019-03-24T06:21:24.788Z,47.47
2019-03-24T06:22:59.793Z,42.23
2019-03-24T06:24:35.186Z,42.90
2019-03-24T06:26:10.104Z,42.23
2019-03-24T06:27:45.028Z,41.07
2019-03-24T06:29:20.004Z,39.63
2019-03-24T06:30:55.314Z,37.07
2019-03-24T06:32:30.255Z,31.83
2019-03-24T06:34:05.513Z,34.73
2019-03-24T06:35:40.479Z,32.67
2019-03-24T06:37:15.387Z,33.27
2019-03-24T06:38:50.544Z,27.33
2019-03-24T06:40:25.470Z,37.43
2019-03-24T06:42:00.666Z,31.43
2019-03-24T06:43:35.678Z,30.13
2019-03-24T06:45:11.492Z,27.77
2019-03-24T06:46:47.573Z,31.17
2019-03-24T07:04:52.634Z,26.80
2019-03-24T07:19:02.583Z,25.80
2019-03-24T07:21:23.599Z,23.27
2019-03-24T07:25:49.909Z,20.37
2019-03-24T07:27:24.941Z,20.37
2019-03-24T07:29:00.115Z,21.67
2019-03-24T07:30:35.564Z,19.67
2019-03-24T07:32:10.493Z,22.77
2019-03-24T07:33:46.019Z,20.33
2019-03-24T07:35:20.998Z,24.60
2019-03-24T07:36:55.930Z,20.17
2019-03-24T07:38:31.117Z,25.33
2019-03-24T07:40:08.462Z,23.73
2019-03-24T07:41:43.726Z,22.07
2019-03-24T07:43:18.675Z,23.03
2019-03-24T07:44:53.586Z,21.67
2019-03-24T07:46:28.802Z,25.20
2019-03-24T07:48:03.722Z,19.90
2019-03-24T07:49:39.297Z,19.37
2019-03-24T07:51:14.911Z,21.73
2019-03-24T07:52:50.860Z,22.37
2019-03-24T07:54:26.486Z,19.60
2019-03-24T07:56:02.097Z,15.47
2019-03-24T07:57:37.694Z,18.17
2019-03-24T07:59:13.290Z,18.20
2019-03-24T08:00:48.340Z,16.90
2019-03-24T08:02:23.400Z,19.57
2019-03-24T08:03:58.301Z,19.77
2019-03-24T08:05:33.547Z,19.33
2019-03-24T08:07:08.462Z,18.20
2019-03-24T08:08:44.366Z,15.70
2019-03-24T08:10:19.566Z,19.43
2019-03-24T08:11:55.450Z,19.07
2019-03-24T08:13:31.403Z,18.73
2019-03-24T08:15:07.633Z,23.67
2019-03-24T08:16:43.567Z,19.80
2019-03-24T08:18:29.321Z,22.23
2019-03-24T08:19:56.517Z,22.13
2019-03-24T08:21:32.405Z,20.73
2019-03-24T08:23:08.063Z,21.40
2019-03-24T08:24:43.698Z,20.77
2019-03-24T08:26:19.574Z,22.03
2019-03-24T08:27:55.489Z,18.40
2019-03-24T08:29:30.397Z,17.70
2019-03-24T08:31:05.316Z,18.87
2019-03-24T08:32:40.868Z,22.97
2019-03-24T08:34:17.000Z,23.27
2019-03-24T08:35:53.059Z,21.90
2019-03-24T08:37:28.641Z,24.10
2019-03-24T08:39:05.603Z,22.57
2019-03-24T08:40:41.576Z,22.10
2019-03-24T08:42:17.340Z,23.77
2019-03-24T08:43:53.012Z,22.20
2019-03-24T08:45:30.010Z,21.13
2019-03-24T08:47:05.903Z,22.90
2019-03-24T08:48:41.883Z,21.17
2019-03-24T08:50:17.822Z,20.20
2019-03-24T08:51:53.439Z,18.40
2019-03-24T08:53:29.074Z,20.90
2019-03-24T08:55:05.097Z,22.67
2019-03-24T08:56:41.118Z,20.40
2019-03-24T08:58:17.280Z,19.43
2019-03-24T08:59:52.908Z,19.63
2019-03-24T09:01:28.700Z,22.27
2019-03-24T09:03:04.438Z,23.13
2019-03-24T09:04:43.962Z,22.83
2019-03-24T09:06:19.845Z,21.47
2019-03-24T09:07:56.298Z,20.23
2019-03-24T09:09:31.938Z,18.23
2019-03-24T09:11:07.553Z,18.47
2019-03-24T09:12:43.675Z,20.23
2019-03-24T09:14:19.267Z,19.37
2019-03-24T09:15:55.097Z,18.17
2019-03-24T09:17:30.728Z,19.37
2019-03-24T09:19:06.380Z,19.50
2019-03-24T09:20:42.150Z,17.63
2019-03-24T09:22:17.750Z,19.00
2019-03-24T09:23:53.361Z,20.47
2019-03-24T09:25:29.023Z,21.23
2019-03-24T09:27:05.203Z,19.00
2019-03-24T09:28:43.187Z,14.73
2019-03-24T09:30:33.475Z,21.03
2019-03-24T09:32:09.076Z,23.10
2019-03-24T09:33:45.046Z,22.57
2019-03-24T09:35:20.681Z,19.97
2019-03-24T09:36:56.540Z,15.03
2019-03-24T09:38:32.612Z,18.57
2019-03-24T09:40:12.981Z,18.10
2019-03-24T09:41:48.569Z,19.73
2019-03-24T09:43:24.212Z,20.07
2019-03-24T09:45:00.351Z,18.37
2019-03-24T09:46:35.960Z,18.87
2019-03-24T09:48:11.823Z,18.87
2019-03-24T09:49:47.962Z,19.53
2019-03-24T09:51:23.674Z,18.47
2019-03-24T09:52:59.420Z,20.03
2019-03-24T09:54:35.294Z,17.70
2019-03-24T09:56:11.228Z,16.33
2019-03-24T09:57:48.858Z,20.93
2019-03-24T09:59:24.138Z,17.37
2019-03-24T10:00:59.977Z,15.80
2019-03-24T10:02:35.594Z,17.83
2019-03-24T10:04:11.215Z,17.03
2019-03-24T10:05:47.066Z,18.37
2019-03-24T10:07:22.664Z,17.87
2019-03-24T10:08:58.250Z,17.23
2019-03-24T10:10:34.199Z,17.30
2019-03-24T10:12:09.801Z,20.53
2019-03-24T10:13:45.396Z,21.63
2019-03-24T10:15:21.274Z,17.73
2019-03-24T10:16:58.501Z,18.37
2019-03-24T10:18:34.339Z,18.17
2019-03-24T10:20:10.325Z,14.97
2019-03-24T10:21:46.412Z,17.43
2019-03-24T10:23:22.024Z,17.00
2019-03-24T10:24:57.618Z,17.43
2019-03-24T10:26:36.489Z,17.07
2019-03-24T10:28:12.135Z,20.17
2019-03-24T10:29:48.087Z,18.60
2019-03-24T10:31:23.850Z,18.20
2019-03-24T10:32:59.523Z,19.70
2019-03-24T10:34:35.122Z,18.90
2019-03-24T10:36:10.751Z,15.97
2019-03-24T10:37:46.399Z,17.80
2019-03-24T10:39:21.998Z,18.23
2019-03-24T10:40:57.621Z,18.60
2019-03-24T10:42:33.203Z,17.73
2019-03-24T10:44:08.804Z,17.43
2019-03-24T10:45:44.391Z,15.57
2019-03-24T10:47:20.008Z,17.07
2019-03-24T10:48:55.764Z,19.80
2019-03-24T10:50:31.425Z,21.60
2019-03-24T10:52:07.329Z,17.57
2019-03-24T10:53:43.191Z,16.10
2019-03-24T10:55:18.964Z,15.30
2019-03-24T10:56:54.829Z,18.30
2019-03-24T10:58:30.694Z,22.90
2019-03-24T11:00:08.242Z,14.13
2019-03-24T11:01:43.832Z,21.93
2019-03-24T11:03:19.791Z,16.47
2019-03-24T11:04:55.958Z,18.83
2019-03-24T11:06:31.551Z,17.10
2019-03-24T11:08:07.319Z,15.23
2019-03-24T11:09:44.996Z,17.47
2019-03-24T11:11:20.740Z,17.10
2019-03-24T11:12:56.334Z,15.60
2019-03-24T11:14:32.181Z,18.90
2019-03-24T11:16:08.340Z,19.50
2019-03-24T11:17:43.939Z,17.53
2019-03-24T11:19:20.037Z,16.67
2019-03-24T11:20:55.673Z,19.07
2019-03-24T11:22:31.741Z,17.50
2019-03-24T11:24:07.413Z,17.17
2019-03-24T11:25:43.032Z,19.03
2019-03-24T11:27:18.624Z,21.33
2019-03-24T11:28:54.529Z,16.90
2019-03-24T11:30:30.205Z,17.37
2019-03-24T11:32:06.130Z,18.40
2019-03-24T11:33:41.743Z,19.60
2019-03-24T11:35:17.358Z,17.30
2019-03-24T11:36:52.963Z,17.90
2019-03-24T11:38:28.826Z,16.93
2019-03-24T11:40:04.969Z,16.23
2019-03-24T11:41:40.670Z,18.03
2019-03-24T11:43:16.507Z,15.00
2019-03-24T11:44:52.089Z,18.90
2019-03-24T11:46:27.708Z,17.27
2019-03-24T11:48:03.302Z,15.87
2019-03-24T11:49:45.919Z,17.07
2019-03-24T11:51:16.222Z,16.43
2019-03-24T11:52:51.850Z,17.97
2019-03-24T11:54:27.714Z,18.13
2019-03-24T11:56:03.823Z,18.27
2019-03-24T11:57:39.710Z,17.27
2019-03-24T11:59:15.606Z,15.93
2019-03-24T12:00:51.366Z,16.90
2019-03-24T12:02:27.318Z,15.90
2019-03-24T12:04:03.208Z,15.47
2019-03-24T12:05:38.882Z,14.07
2019-03-24T12:07:14.482Z,17.77
2019-03-24T12:08:50.081Z,14.90
2019-03-24T12:10:25.713Z,16.37
2019-03-24T12:12:01.300Z,17.70
2019-03-24T12:13:37.367Z,16.50
2019-03-24T12:15:13.230Z,16.73
2019-03-24T12:16:48.833Z,15.57
2019-03-24T12:18:24.686Z,16.47
2019-03-24T12:20:00.347Z,20.37
2019-03-24T12:21:36.003Z,15.10
2019-03-24T12:23:11.623Z,18.00
2019-03-24T12:24:47.500Z,19.53
2019-03-24T12:26:23.915Z,16.13
2019-03-24T12:27:59.522Z,17.43
2019-03-24T12:29:35.114Z,17.70
2019-03-24T12:31:10.737Z,16.30
2019-03-24T12:32:46.362Z,16.00
2019-03-24T12:34:21.959Z,17.27
2019-03-24T12:35:57.314Z,16.93
2019-03-24T12:37:32.529Z,17.77
2019-03-24T12:39:08.117Z,16.63
2019-03-24T12:40:43.068Z,19.23
2019-03-24T12:42:18.037Z,18.57
2019-03-24T12:43:53.018Z,14.73
2019-03-24T12:45:28.170Z,18.17
2019-03-24T12:47:03.105Z,18.20
2019-03-24T12:48:38.134Z,18.53
2019-03-24T12:50:14.734Z,16.00
2019-03-24T12:51:49.635Z,20.30
2019-03-24T12:53:24.798Z,18.13
2019-03-24T12:54:59.717Z,18.23
2019-03-24T12:56:34.760Z,19.40
2019-03-24T12:58:09.682Z,19.13
2019-03-24T12:59:44.614Z,19.50
2019-03-24T13:01:19.536Z,17.13
2019-03-24T13:02:54.938Z,16.80
2019-03-24T13:04:30.130Z,17.47
2019-03-24T13:06:05.251Z,18.80
2019-03-24T13:07:40.153Z,21.40
2019-03-24T13:09:15.110Z,17.70
2019-03-24T13:10:50.127Z,20.63
2019-03-24T13:12:25.419Z,16.83
2019-03-24T13:14:00.370Z,19.77
2019-03-24T13:15:35.282Z,15.17
2019-03-24T13:17:10.223Z,17.83
2019-03-24T13:18:45.650Z,19.90
2019-03-24T13:20:35.234Z,18.80
2019-03-24T13:21:57.355Z,15.07
2019-03-24T13:23:32.671Z,18.10
2019-03-24T13:25:08.032Z,16.37
2019-03-24T13:26:43.075Z,16.30
2019-03-24T13:28:18.090Z,18.30
2019-03-24T13:29:52.996Z,17.83
2019-03-24T13:31:27.923Z,19.00
2019-03-24T13:33:02.865Z,19.00
2019-03-24T13:34:38.051Z,20.03
2019-03-24T13:36:14.081Z,18.57
2019-03-24T13:37:49.022Z,19.13
2019-03-24T13:39:23.949Z,19.27
2019-03-24T13:40:58.859Z,17.97
2019-03-24T13:42:34.045Z,23.63
2019-03-24T13:44:09.216Z,18.93
2019-03-24T13:45:44.134Z,16.67
2019-03-24T13:47:19.054Z,17.53
2019-03-24T13:48:54.064Z,19.70
2019-03-24T13:50:31.616Z,15.23
2019-03-24T13:52:05.726Z,17.13
2019-03-24T13:53:40.696Z,16.40
2019-03-24T13:55:15.944Z,21.63
2019-03-24T13:56:51.147Z,17.93
2019-03-24T13:58:26.281Z,21.20
2019-03-24T14:00:01.589Z,15.13
2019-03-24T14:01:37.052Z,17.43
2019-03-24T14:03:12.039Z,18.43
2019-03-24T14:04:47.587Z,19.03
2019-03-24T14:06:22.691Z,19.30
2019-03-24T14:07:57.595Z,16.20
2019-03-24T14:09:33.335Z,16.70
2019-03-24T14:11:08.530Z,18.83
2019-03-24T14:12:43.446Z,17.93
2019-03-24T14:14:18.401Z,16.37
2019-03-24T14:15:53.374Z,19.03
2019-03-24T14:17:28.739Z,20.37
2019-03-24T14:19:03.911Z,20.80
2019-03-24T14:20:43.766Z,17.93
2019-03-24T14:22:15.719Z,19.43
2019-03-24T14:23:50.617Z,19.10
2019-03-24T14:25:25.840Z,15.43
2019-03-24T14:27:00.807Z,15.47
2019-03-24T14:28:35.716Z,20.43
2019-03-24T14:30:12.774Z,20.57
2019-03-24T14:31:47.918Z,16.37
2019-03-24T14:33:22.950Z,17.47
2019-03-24T14:34:58.157Z,18.93
2019-03-24T14:36:33.326Z,17.83
2019-03-24T14:38:08.411Z,18.40
2019-03-24T14:39:44.123Z,17.10
2019-03-24T14:41:19.500Z,17.03
2019-03-24T14:42:54.398Z,20.03
2019-03-24T14:44:29.330Z,14.77
2019-03-24T14:46:04.332Z,17.27
2019-03-24T14:47:39.339Z,17.67
2019-03-24T14:49:14.284Z,18.40
2019-03-24T14:50:54.643Z,15.40
2019-03-24T14:52:28.858Z,20.70
2019-03-24T14:54:03.828Z,16.40
2019-03-24T14:55:38.774Z,19.27
2019-03-24T14:57:13.766Z,17.03
2019-03-24T14:58:49.193Z,20.60
2019-03-24T15:00:34.851Z,22.50
2019-03-24T15:02:10.081Z,20.97
2019-03-24T15:03:45.332Z,25.27
2019-03-24T15:05:20.331Z,30.53
2019-03-24T15:06:55.595Z,16.50
2019-03-24T15:08:30.523Z,20.47
2019-03-24T15:10:05.847Z,15.27
2019-03-24T15:11:41.489Z,17.97
2019-03-24T15:13:17.035Z,19.37
2019-03-24T15:14:51.938Z,16.70
2019-03-24T15:16:26.867Z,17.57
2019-03-24T15:18:01.779Z,16.53
2019-03-24T15:19:37.039Z,15.87
2019-03-24T15:21:11.970Z,20.60
2019-03-24T15:22:46.879Z,16.47
2019-03-24T15:24:21.778Z,14.30
2019-03-24T15:25:56.662Z,13.83
2019-03-24T15:27:31.607Z,14.73
2019-03-24T15:29:06.516Z,17.10
2019-03-24T15:30:41.417Z,17.97
2019-03-24T15:32:16.419Z,18.40
2019-03-24T15:33:51.568Z,15.30
2019-03-24T15:35:26.503Z,17.50
2019-03-24T15:37:01.774Z,16.03
2019-03-24T15:38:36.713Z,17.17
2019-03-24T15:40:12.121Z,14.70
2019-03-24T15:41:47.254Z,15.53
2019-03-24T15:43:22.440Z,17.23
2019-03-24T15:44:57.618Z,14.70
2019-03-24T15:46:32.867Z,12.43
2019-03-24T15:48:08.055Z,13.90
2019-03-24T15:49:42.974Z,18.20
2019-03-24T15:51:17.911Z,18.57
2019-03-24T15:52:53.143Z,13.13
2019-03-24T15:54:28.343Z,16.30
2019-03-24T15:56:03.379Z,13.10
2019-03-24T15:57:38.634Z,12.27
2019-03-24T15:59:13.575Z,13.60
2019-03-24T16:00:49.569Z,13.67
2019-03-24T16:02:24.631Z,13.20
2019-03-24T16:03:59.534Z,16.23
2019-03-24T16:05:34.444Z,15.40
2019-03-24T16:07:09.367Z,14.73
2019-03-24T16:08:44.278Z,15.03
2019-03-24T16:10:19.271Z,16.27
2019-03-24T16:11:54.538Z,11.10
2019-03-24T16:13:29.457Z,15.30
2019-03-24T16:15:05.174Z,12.47
2019-03-24T16:16:40.400Z,14.20
2019-03-24T16:18:15.957Z,15.03
2019-03-24T16:19:50.938Z,13.67
2019-03-24T16:21:27.975Z,13.93
2019-03-24T16:23:02.867Z,14.83
2019-03-24T16:24:38.098Z,16.23
2019-03-24T16:26:13.011Z,13.80
2019-03-24T16:27:47.938Z,11.70
2019-03-24T16:29:22.907Z,15.57
2019-03-24T16:30:57.826Z,12.13
2019-03-24T16:32:32.798Z,15.57
2019-03-24T16:34:07.725Z,14.27
2019-03-24T16:35:42.637Z,33.80
2019-03-24T16:37:17.550Z,33.87
2019-03-24T16:39:02.986Z,20.00
2019-03-24T16:40:29.113Z,15.90
2019-03-24T16:42:04.335Z,17.13
2019-03-24T16:43:39.665Z,13.93
2019-03-24T16:45:14.902Z,14.87
2019-03-24T16:46:50.139Z,14.53
2019-03-24T16:48:36.170Z,14.27
2019-03-24T16:50:01.797Z,16.50
2019-03-24T16:51:39.098Z,12.93
2019-03-24T16:53:13.911Z,15.50
2019-03-24T16:54:48.858Z,14.90
2019-03-24T16:56:23.749Z,14.17
2019-03-24T16:57:58.688Z,20.40
2019-03-24T16:59:33.654Z,17.93
2019-03-24T17:01:08.862Z,18.10
2019-03-24T17:02:44.091Z,19.93
2019-03-24T17:04:19.274Z,20.80
2019-03-24T17:05:54.166Z,17.90
2019-03-24T17:07:29.327Z,17.77
2019-03-24T17:09:06.135Z,16.60
2019-03-24T17:10:41.336Z,16.40
2019-03-24T17:12:16.515Z,17.87
2019-03-24T17:13:51.451Z,17.07
2019-03-24T17:15:26.362Z,19.60
2019-03-24T17:17:01.277Z,19.50
2019-03-24T17:18:36.626Z,16.70
2019-03-24T17:20:11.993Z,18.43
2019-03-24T17:21:50.150Z,19.60
2019-03-24T17:23:23.905Z,15.67
2019-03-24T17:24:59.083Z,16.90
2019-03-24T17:26:34.278Z,19.10
2019-03-24T17:28:09.187Z,17.97
2019-03-24T17:29:44.107Z,20.40
2019-03-24T17:31:20.311Z,17.20
2019-03-24T17:32:55.268Z,17.40
2019-03-24T17:34:30.186Z,18.13
2019-03-24T17:36:05.508Z,22.33
2019-03-24T17:37:40.475Z,16.40
2019-03-24T17:39:15.706Z,17.90
2019-03-24T17:40:50.902Z,18.17
2019-03-24T17:42:25.866Z,16.67
2019-03-24T17:44:03.402Z,20.83
2019-03-24T17:45:37.454Z,15.87
2019-03-24T17:47:12.839Z,18.87
2019-03-24T17:48:47.765Z,21.73
2019-03-24T17:50:22.677Z,21.30
2019-03-24T17:52:00.976Z,20.93
2019-03-24T17:53:34.776Z,19.93
2019-03-24T17:55:10.433Z,20.87
2019-03-24T17:56:45.438Z,24.67
2019-03-24T17:58:20.654Z,22.17
2019-03-24T17:59:55.589Z,18.07
2019-03-24T18:01:30.531Z,20.00
2019-03-24T18:03:05.545Z,20.97
2019-03-24T18:04:40.457Z,19.70
2019-03-24T18:06:15.380Z,19.03
2019-03-24T18:07:50.283Z,20.73
2019-03-24T18:09:25.258Z,20.10
2019-03-24T18:11:00.499Z,21.60
2019-03-24T18:12:35.482Z,22.23
2019-03-24T18:14:10.400Z,23.73
2019-03-24T18:15:45.395Z,23.77
2019-03-24T18:17:20.345Z,22.30
2019-03-24T18:18:55.318Z,25.13
2019-03-24T18:20:31.637Z,24.03
2019-03-24T18:22:11.625Z,25.13
2019-03-24T18:23:43.478Z,25.60
2019-03-24T18:25:18.967Z,20.20
2019-03-24T18:26:53.890Z,22.93
2019-03-24T18:28:29.031Z,20.83
2019-03-24T18:30:05.799Z,19.57
2019-03-24T18:31:41.131Z,20.43
2019-03-24T18:33:16.140Z,19.40
2019-03-24T18:34:51.042Z,21.43
2019-03-24T18:36:26.876Z,23.33
2019-03-24T18:38:02.698Z,22.17
2019-03-24T18:39:37.899Z,21.80
2019-03-24T18:41:13.750Z,22.07
2019-03-24T18:42:49.405Z,21.33
2019-03-24T18:44:25.306Z,21.47
2019-03-24T18:46:00.969Z,21.77
2019-03-24T18:47:36.553Z,21.57
2019-03-24T18:49:12.156Z,25.53
2019-03-24T18:50:48.106Z,22.37
2019-03-24T18:52:23.685Z,19.93
2019-03-24T18:53:59.288Z,24.27
2019-03-24T18:55:34.355Z,23.55
2019-03-24T18:57:09.287Z,23.47
2019-03-24T18:58:44.465Z,21.40
2019-03-24T19:00:20.950Z,21.60
2019-03-24T19:01:55.854Z,17.98
2019-03-24T19:03:31.029Z,22.52
2019-03-24T19:05:06.821Z,21.05
2019-03-24T19:06:41.986Z,22.73
2019-03-24T19:08:17.150Z,21.23
2019-03-24T19:09:52.365Z,26.40
2019-03-24T19:11:27.558Z,22.75
2019-03-24T19:13:02.468Z,25.45
2019-03-24T19:14:40.058Z,23.30
2019-03-24T19:16:14.667Z,22.58
2019-03-24T19:17:50.037Z,23.67
2019-03-24T19:19:25.376Z,19.32
2019-03-24T19:21:00.314Z,23.15
2019-03-24T19:22:35.258Z,24.37
2019-03-24T19:24:10.169Z,22.98
2019-03-24T19:25:45.322Z,23.55
2019-03-24T19:27:20.517Z,25.15
2019-03-24T19:28:55.676Z,28.42
2019-03-24T19:30:36.258Z,30.65
2019-03-24T19:32:11.267Z,24.12
2019-03-24T19:33:46.602Z,24.32
2019-03-24T19:35:21.526Z,24.52
2019-03-24T19:36:58.835Z,24.85
2019-03-24T19:38:34.096Z,22.87
2019-03-24T19:40:17.687Z,22.60
2019-03-24T19:41:52.594Z,24.95
2019-03-24T19:43:27.803Z,22.73
2019-03-24T19:45:02.855Z,23.22
2019-03-24T19:46:38.153Z,22.17
2019-03-24T19:48:13.098Z,23.50
2019-03-24T19:49:48.282Z,21.12
2019-03-24T19:51:23.190Z,22.60
2019-03-24T19:52:58.094Z,24.50
2019-03-24T19:54:33.031Z,22.58
2019-03-24T19:56:07.942Z,20.97
2019-03-24T19:57:42.878Z,24.07
2019-03-24T19:59:17.811Z,26.07
2019-03-24T20:00:52.744Z,24.47
2019-03-24T20:02:27.656Z,24.75
2019-03-24T20:04:02.675Z,22.42
2019-03-24T20:05:37.599Z,23.90
2019-03-24T20:07:12.498Z,28.85
2019-03-24T20:08:47.406Z,25.57
2019-03-24T20:10:22.571Z,25.82
2019-03-24T20:11:57.742Z,29.72
2019-03-24T20:13:32.638Z,29.30
2019-03-24T20:15:07.905Z,27.17
2019-03-24T20:16:42.807Z,28.27
2019-03-24T20:18:17.745Z,26.42
2019-03-24T20:19:52.669Z,30.08
2019-03-24T20:21:27.593Z,24.87
2019-03-24T20:23:02.565Z,30.92
2019-03-24T20:24:37.714Z,24.77
2019-03-24T20:26:12.677Z,30.70
2019-03-24T20:27:47.681Z,23.80
2019-03-24T20:29:22.600Z,28.05
2019-03-24T20:30:59.675Z,29.48
2019-03-24T20:32:34.844Z,28.02
2019-03-24T20:34:10.033Z,28.20
2019-03-24T20:35:44.976Z,30.20
2019-03-24T20:37:19.878Z,27.52
2019-03-24T20:38:54.879Z,29.25
2019-03-24T20:40:30.090Z,29.07
2019-03-24T20:42:05.512Z,33.67
2019-03-24T20:43:40.830Z,30.17
2019-03-24T20:45:15.860Z,31.45
2019-03-24T20:46:51.265Z,31.95
2019-03-24T20:48:26.553Z,36.03
2019-03-24T20:50:03.767Z,33.38
2019-03-24T20:51:38.174Z,34.43
2019-03-24T20:53:18.264Z,27.07
2019-03-24T20:54:50.017Z,28.95
2019-03-24T20:56:24.969Z,30.85
2019-03-24T20:58:00.174Z,29.07
2019-03-24T20:59:35.302Z,34.92
2019-03-24T21:01:10.722Z,31.55